Clarkton, North Carolina
Current Conditions -  °F | °C
As of 8:35 PM on Wednesday 26 Nov 2014 (Local Time) from KEYF Reporting Station
Clear Clear  
Wind Chill:   Ceiling: Unl
Heat Index:   Visibility: 10mi
Dew Point:   Wind: 0mph
Humidity: 99%   Direction: NA
Pressure: 30.08"   Gusts: NA
Location:  34.49°N, 78.66°W
Report Text: KEYF 270135Z AUTO 00000KT 10SM CLR 05/05 A3008 RMK AO2 T00480047
Loading
Personal Weather Stations






























Interactive Weather Map New forecast layout! Learn more

10-Day Weather Forecast

Advertisements
Track Severe Weather on mobile